Time;durP1;ratioP1;P1;durP2;ratioP2;P2;SDS_P1;SDS_P2;PMS_P1;PMS_P2;Temp;Humidity;BMP_temperature;BMP_pressure;BME280_temperature;BME280_humidity;BME280_pressure;Samples;Min_cycle;Max_cycle;Signal;HPM_P1;HPM_P2
2024/02/01 00:01:08;;;;;;;35.67;10.02;;;;;;;;;;4744877;30;20119;-80
2024/02/01 00:03:34;;;;;;;36.72;7.50;;;;;;;;;;4759623;30;20135;-80
2024/02/01 00:06:00;;;;;;;19.20;10.27;;;;;;;;;;4752516;30;20048;-80
2024/02/01 00:08:26;;;;;;;25.60;11.73;;;;;;;;;;4739322;30;20454;-80
2024/02/01 00:10:52;;;;;;;22.70;11.02;;;;;;;;;;4734957;30;20132;-80
2024/02/01 00:13:18;;;;;;;25.23;7.85;;;;;;;;;;4755168;30;20510;-80
2024/02/01 00:15:44;;;;;;;9.30;4.38;;;;;;;;;;4750578;30;20178;-80
2024/02/01 00:18:10;;;;;;;9.40;3.53;;;;;;;;;;4742044;30;20032;-79
2024/02/01 00:20:36;;;;;;;17.80;5.35;;;;;;;;;;4759335;30;20039;-80
2024/02/01 00:23:02;;;;;;;4.35;2.42;;;;;;;;;;4741109;30;20044;-80
2024/02/01 00:25:28;;;;;;;10.80;3.60;;;;;;;;;;4769098;30;20036;-80
2024/02/01 00:27:55;;;;;;;21.63;4.63;;;;;;;;;;4750994;30;20032;-80
2024/02/01 00:30:21;;;;;;;16.40;5.40;;;;;;;;;;4740655;30;20036;-80
2024/02/01 00:32:48;;;;;;;14.48;5.00;;;;;;;;;;4750476;30;20113;-79
2024/02/01 00:35:14;;;;;;;4.65;3.30;;;;;;;;;;4761497;30;20056;-80
2024/02/01 00:37:40;;;;;;;12.43;4.20;;;;;;;;;;4757291;30;20047;-80
2024/02/01 00:40:06;;;;;;;5.47;2.28;;;;;;;;;;4761458;30;20032;-80
2024/02/01 00:42:32;;;;;;;3.75;2.97;;;;;;;;;;4768315;30;20040;-80
2024/02/01 00:44:58;;;;;;;6.80;2.25;;;;;;;;;;4751198;30;20513;-80
2024/02/01 00:47:24;;;;;;;2.70;1.20;;;;;;;;;;4751897;30;20046;-80
2024/02/01 00:49:50;;;;;;;8.02;3.33;;;;;;;;;;4759971;30;20506;-80
2024/02/01 00:52:16;;;;;;;17.35;2.45;;;;;;;;;;4761722;30;20043;-80
2024/02/01 00:54:42;;;;;;;5.32;2.15;;;;;;;;;;4762498;30;20063;-80
2024/02/01 00:57:08;;;;;;;10.55;2.35;;;;;;;;;;4750491;30;20425;-80
2024/02/01 00:59:34;;;;;;;4.63;1.98;;;;;;;;;;4759803;30;20490;-80
2024/02/01 01:02:00;;;;;;;6.80;2.33;;;;;;;;;;4752673;30;20047;-80
2024/02/01 01:04:26;;;;;;;12.05;2.15;;;;;;;;;;4762976;30;20082;-80
2024/02/01 01:06:52;;;;;;;3.88;2.67;;;;;;;;;;4766817;30;20048;-80
2024/02/01 01:09:18;;;;;;;5.65;2.38;;;;;;;;;;4748942;30;20051;-80
2024/02/01 01:11:44;;;;;;;5.95;2.03;;;;;;;;;;4752417;30;20047;-80
2024/02/01 01:14:10;;;;;;;12.88;2.90;;;;;;;;;;4742863;30;20034;-80
2024/02/01 01:16:36;;;;;;;4.78;1.33;;;;;;;;;;4748840;30;20093;-80
2024/02/01 01:19:02;;;;;;;8.55;2.70;;;;;;;;;;4750073;30;20060;-80
2024/02/01 01:21:28;;;;;;;;;;;;;;;;;;4762722;30;20043;-80
2024/02/01 01:23:54;;;;;;;3.58;2.28;;;;;;;;;;4765557;30;20337;-80
2024/02/01 01:26:21;;;;;;;5.18;2.17;;;;;;;;;;4757497;30;20036;-80
2024/02/01 01:28:47;;;;;;;4.28;2.80;;;;;;;;;;4735172;30;20046;-80
2024/02/01 01:31:13;;;;;;;3.95;1.33;;;;;;;;;;4755360;30;20475;-80
2024/02/01 01:33:39;;;;;;;5.82;1.92;;;;;;;;;;4763107;30;20056;-80
2024/02/01 01:36:05;;;;;;;8.07;1.60;;;;;;;;;;4760607;30;20032;-80
2024/02/01 01:38:31;;;;;;;6.15;2.05;;;;;;;;;;4743302;30;20052;-80
2024/02/01 01:40:57;;;;;;;4.93;2.08;;;;;;;;;;4759992;30;20032;-80
2024/02/01 01:43:25;;;;;;;12.60;3.30;;;;;;;;;;4753543;30;20528;-80
2024/02/01 01:46:04;;;;;;;4.85;2.25;;;;;;;;;;4752159;30;20479;-80
2024/02/01 01:48:30;;;;;;;5.15;1.77;;;;;;;;;;4735753;30;20527;-83
2024/02/01 01:50:57;;;;;;;23.33;2.17;;;;;;;;;;4751897;30;20045;-80
2024/02/01 01:53:24;;;;;;;4.65;2.72;;;;;;;;;;4748022;30;20130;-81
2024/02/01 01:55:50;;;;;;;7.18;1.88;;;;;;;;;;4752037;30;20035;-81
2024/02/01 01:58:16;;;;;;;;;;;;;;;;;;4766724;30;20043;-81
2024/02/01 02:00:42;;;;;;;4.40;2.38;;;;;;;;;;4763570;30;19926;-81
2024/02/01 02:03:10;;;;;;;4.18;1.92;;;;;;;;;;4766163;30;20038;-80
2024/02/01 02:05:36;;;;;;;3.17;1.85;;;;;;;;;;4751569;30;20048;-80
2024/02/01 02:08:02;;;;;;;2.25;1.27;;;;;;;;;;4760769;30;20031;-80
2024/02/01 02:10:28;;;;;;;3.83;0.80;;;;;;;;;;4764621;30;20114;-80
2024/02/01 02:12:54;;;;;;;3.13;0.80;;;;;;;;;;4759323;30;20151;-80
2024/02/01 02:15:21;;;;;;;7.53;3.33;;;;;;;;;;4755709;30;20040;-80
2024/02/01 02:17:48;;;;;;;7.28;1.70;;;;;;;;;;4753072;30;20115;-80
2024/02/01 02:20:17;;;;;;;4.20;2.35;;;;;;;;;;4758231;30;20102;-80
2024/02/01 02:22:46;;;;;;;5.07;1.70;;;;;;;;;;4754142;30;20490;-80
2024/02/01 02:25:15;;;;;;;8.82;2.03;;;;;;;;;;4748252;30;20094;-80
2024/02/01 02:27:42;;;;;;;12.27;2.75;;;;;;;;;;4744280;30;20187;-80
2024/02/01 02:30:08;;;;;;;;;;;;;;;;;;4762861;30;20556;-80
2024/02/01 02:32:34;;;;;;;2.97;1.65;;;;;;;;;;4746947;30;19949;-80
2024/02/01 02:35:00;;;;;;;4.85;1.65;;;;;;;;;;4758630;30;20059;-80
2024/02/01 02:37:26;;;;;;;2.90;1.20;;;;;;;;;;4750576;30;20021;-80
2024/02/01 02:39:52;;;;;;;6.53;1.90;;;;;;;;;;4769640;30;20494;-80
2024/02/01 02:42:18;;;;;;;3.45;2.53;;;;;;;;;;4759975;30;20038;-80
2024/02/01 02:44:44;;;;;;;2.15;1.25;;;;;;;;;;4752412;30;20055;-80
2024/02/01 02:47:11;;;;;;;3.75;2.10;;;;;;;;;;4754963;30;20066;-80
2024/02/01 02:49:37;;;;;;;2.15;1.42;;;;;;;;;;4754148;30;20078;-80
2024/02/01 02:52:03;;;;;;;4.32;1.45;;;;;;;;;;4752440;30;20781;-80
2024/02/01 02:54:29;;;;;;;13.07;1.75;;;;;;;;;;4753446;30;20479;-80
2024/02/01 02:56:55;;;;;;;3.78;2.00;;;;;;;;;;4739171;30;20227;-80
2024/02/01 02:59:22;;;;;;;;;;;;;;;;;;4763785;30;20102;-80
2024/02/01 03:01:48;;;;;;;2.70;1.25;;;;;;;;;;4760214;30;19944;-80
2024/02/01 03:04:14;;;;;;;5.65;1.55;;;;;;;;;;4751717;30;20515;-80
2024/02/01 03:06:40;;;;;;;6.22;1.30;;;;;;;;;;4762448;30;20055;-80
2024/02/01 03:09:09;;;;;;;5.55;2.22;;;;;;;;;;4770585;30;20516;-80
2024/02/01 03:11:35;;;;;;;2.88;1.38;;;;;;;;;;4761931;30;20071;-80
2024/02/01 03:14:01;;;;;;;6.77;2.80;;;;;;;;;;4764782;30;20505;-80
2024/02/01 03:16:27;;;;;;;7.20;1.67;;;;;;;;;;4767151;30;20110;-79
2024/02/01 03:18:53;;;;;;;12.35;2.28;;;;;;;;;;4769995;30;20047;-80
2024/02/01 03:21:19;;;;;;;9.38;2.00;;;;;;;;;;4753500;30;20434;-80
2024/02/01 03:23:46;;;;;;;4.82;2.00;;;;;;;;;;4757224;30;20434;-80
2024/02/01 03:26:13;;;;;;;2.58;1.25;;;;;;;;;;4753510;30;20585;-80
2024/02/01 03:28:43;;;;;;;5.00;1.60;;;;;;;;;;4760835;30;20135;-79
2024/02/01 03:31:09;;;;;;;4.50;1.45;;;;;;;;;;4762079;30;20126;-80
2024/02/01 03:33:38;;;;;;;4.40;3.00;;;;;;;;;;4743022;30;20062;-80
2024/02/01 03:36:06;;;;;;;5.35;1.95;;;;;;;;;;4769098;30;20028;-80
2024/02/01 03:38:32;;;;;;;2.63;1.17;;;;;;;;;;4753232;30;20130;-80
2024/02/01 03:40:58;;;;;;;10.40;2.05;;;;;;;;;;4769451;30;20114;-79
2024/02/01 03:43:24;;;;;;;2.88;1.80;;;;;;;;;;4759788;30;20040;-79
2024/02/01 03:45:50;;;;;;;3.25;1.13;;;;;;;;;;4762748;30;20085;-80
2024/02/01 03:48:17;;;;;;;2.78;1.52;;;;;;;;;;4767891;30;20521;-80
2024/02/01 03:50:44;;;;;;;8.30;1.35;;;;;;;;;;4752774;30;20556;-80
2024/02/01 03:53:10;;;;;;;5.00;1.85;;;;;;;;;;4756780;30;20044;-80
2024/02/01 03:55:40;;;;;;;4.10;2.10;;;;;;;;;;4754647;30;20837;-80
2024/02/01 03:58:06;;;;;;;4.00;1.42;;;;;;;;;;4741953;30;20033;-80
2024/02/01 04:00:34;;;;;;;9.13;2.55;;;;;;;;;;4752050;30;20043;-80
2024/02/01 04:03:05;;;;;;;1.90;1.10;;;;;;;;;;4755540;30;20040;-80
2024/02/01 04:05:37;;;;;;;9.30;0.93;;;;;;;;;;4768224;30;20055;-80
2024/02/01 04:08:06;;;;;;;7.95;2.95;;;;;;;;;;4759153;30;20047;-80
2024/02/01 04:10:33;;;;;;;11.43;3.33;;;;;;;;;;4747293;30;20123;-80
2024/02/01 04:12:59;;;;;;;7.55;1.77;;;;;;;;;;4763626;30;20122;-80
2024/02/01 04:15:25;;;;;;;5.22;0.95;;;;;;;;;;4762332;30;20112;-80
2024/02/01 04:17:51;;;;;;;2.47;1.73;;;;;;;;;;4740475;30;20062;-80
2024/02/01 04:20:18;;;;;;;3.97;1.98;;;;;;;;;;4750435;30;20446;-80
2024/02/01 04:22:44;;;;;;;4.00;2.15;;;;;;;;;;4761913;30;20494;-80
2024/02/01 04:25:10;;;;;;;2.20;1.02;;;;;;;;;;4751565;30;20499;-80
2024/02/01 04:27:36;;;;;;;5.35;3.60;;;;;;;;;;4766653;30;20039;-80
2024/02/01 04:30:08;;;;;;;10.93;5.10;;;;;;;;;;4769664;30;20040;-80
2024/02/01 04:32:34;;;;;;;18.70;8.48;;;;;;;;;;4740842;30;20072;-80
2024/02/01 04:35:04;;;;;;;13.50;6.03;;;;;;;;;;4747800;30;20055;-80
2024/02/01 04:37:29;;;;;;;;;;;;;;;;;;4744792;30;20458;-80
2024/02/01 04:39:55;;;;;;;13.48;5.78;;;;;;;;;;4766385;30;19969;-80
2024/02/01 04:42:23;;;;;;;13.95;6.10;;;;;;;;;;4761408;30;20084;-80
2024/02/01 04:44:50;;;;;;;2.67;1.13;;;;;;;;;;4751831;30;20467;-80
2024/02/01 04:47:17;;;;;;;4.30;1.55;;;;;;;;;;4742697;30;20051;-80
2024/02/01 04:49:43;;;;;;;7.32;1.95;;;;;;;;;;4767283;30;20039;-81
2024/02/01 04:52:09;;;;;;;;;;;;;;;;;;4765808;30;20116;-80
2024/02/01 04:54:37;;;;;;;2.65;1.42;;;;;;;;;;4748176;30;19921;-80
2024/02/01 04:57:03;;;;;;;;;;;;;;;;;;4751190;30;20539;-80
2024/02/01 04:59:29;;;;;;;2.77;1.40;;;;;;;;;;4768902;30;19975;-80
2024/02/01 05:01:55;;;;;;;5.68;1.88;;;;;;;;;;4750041;30;20046;-79
2024/02/01 05:04:21;;;;;;;7.20;1.63;;;;;;;;;;4762209;30;20036;-80
2024/02/01 05:06:47;;;;;;;3.85;1.92;;;;;;;;;;4767181;30;20151;-80
2024/02/01 05:09:26;;;;;;;7.43;1.70;;;;;;;;;;4745321;30;20036;-80
2024/02/01 05:11:55;;;;;;;4.45;2.65;;;;;;;;;;4755086;30;20068;-80
2024/02/01 05:14:21;;;;;;;4.22;1.80;;;;;;;;;;4768961;30;20494;-80
2024/02/01 05:16:49;;;;;;;;;;;;;;;;;;4748203;30;20032;-80
2024/02/01 05:19:14;;;;;;;;;;;;;;;;;;4748659;30;19925;-80
2024/02/01 05:21:40;;;;;;;4.93;2.40;;;;;;;;;;4751231;30;19914;-80
2024/02/01 05:24:08;;;;;;;4.93;2.72;;;;;;;;;;4761469;30;20086;-80
2024/02/01 05:26:37;;;;;;;6.13;2.60;;;;;;;;;;4758371;30;20111;-81
2024/02/01 05:29:04;;;;;;;5.28;2.10;;;;;;;;;;4742031;30;20051;-80
2024/02/01 05:31:30;;;;;;;6.47;2.28;;;;;;;;;;4739440;30;20044;-80
2024/02/01 05:33:56;;;;;;;6.07;2.55;;;;;;;;;;4751246;30;20137;-80
2024/02/01 05:36:22;;;;;;;3.88;3.03;;;;;;;;;;4759504;30;20162;-80
2024/02/01 05:38:48;;;;;;;6.22;2.90;;;;;;;;;;4761016;30;20118;-80
2024/02/01 05:41:14;;;;;;;4.85;2.95;;;;;;;;;;4767100;30;20459;-80
2024/02/01 05:43:40;;;;;;;;;;;;;;;;;;4745244;30;20166;-80
2024/02/01 05:46:10;;;;;;;7.53;2.78;;;;;;;;;;4758648;30;19959;-80
2024/02/01 05:48:38;;;;;;;3.85;2.40;;;;;;;;;;4753028;30;20039;-80
2024/02/01 05:51:04;;;;;;;;;;;;;;;;;;4743689;30;20048;-80
2024/02/01 05:53:31;;;;;;;6.22;3.72;;;;;;;;;;4753425;30;19918;-81
2024/02/01 05:55:57;;;;;;;4.15;1.98;;;;;;;;;;4759875;30;20040;-80
2024/02/01 05:58:23;;;;;;;4.90;2.08;;;;;;;;;;4747627;30;20020;-80
2024/02/01 06:00:49;;;;;;;7.80;3.37;;;;;;;;;;4735749;30;20411;-80
2024/02/01 06:03:15;;;;;;;9.35;3.80;;;;;;;;;;4755472;30;20439;-80
2024/02/01 06:05:41;;;;;;;5.65;2.33;;;;;;;;;;4756110;30;20046;-80
2024/02/01 06:08:07;;;;;;;;;;;;;;;;;;4762192;30;20039;-80
2024/02/01 06:10:33;;;;;;;;;;;;;;;;;;4769594;30;20000;-80
2024/02/01 06:12:59;;;;;;;;;;;;;;;;;;4764732;30;19921;-80
2024/02/01 06:15:25;;;;;;;2.35;1.00;;;;;;;;;;4746446;30;19918;-80
2024/02/01 06:17:51;;;;;;;5.75;2.42;;;;;;;;;;4745346;30;20079;-80
2024/02/01 06:20:18;;;;;;;6.72;2.70;;;;;;;;;;4765134;30;20098;-79
2024/02/01 06:22:44;;;;;;;9.27;3.00;;;;;;;;;;4760561;30;20477;-82
2024/02/01 06:25:11;;;;;;;2.63;1.98;;;;;;;;;;4758944;30;20471;-81
2024/02/01 06:27:37;;;;;;;4.35;2.70;;;;;;;;;;4764346;30;20415;-81
2024/02/01 06:30:04;;;;;;;3.45;1.88;;;;;;;;;;4764453;30;20044;-80
2024/02/01 06:32:30;;;;;;;7.63;2.15;;;;;;;;;;4758334;30;20472;-80
2024/02/01 06:35:06;;;;;;;9.25;3.15;;;;;;;;;;4722557;30;1231948;-80
2024/02/01 06:37:32;;;;;;;4.32;2.00;;;;;;;;;;4767318;30;20864;-80
2024/02/01 06:40:13;;;;;;;8.15;3.00;;;;;;;;;;4763883;30;20438;-84
2024/02/01 06:42:54;;;;;;;12.63;2.47;;;;;;;;;;4748689;30;20044;-82
2024/02/01 06:45:28;;;;;;;3.28;1.52;;;;;;;;;;4762966;30;20031;-81
2024/02/01 06:48:04;;;;;;;7.00;3.20;;;;;;;;;;4761191;30;20031;-81
2024/02/01 06:50:54;;;;;;;3.25;1.92;;;;;;;;;;4770832;30;20051;-81
2024/02/01 06:53:20;;;;;;;;;;;;;;;;;;4762441;30;20036;-81
2024/02/01 06:56:28;;;;;;;5.72;2.17;;;;;;;;;;4768080;30;19918;-81
2024/02/01 06:59:11;;;;;;;7.57;2.42;;;;;;;;;;4751674;30;20861;-81
2024/02/01 07:02:01;;;;;;;8.80;2.38;;;;;;;;;;4769099;30;20495;-81
2024/02/01 07:04:41;;;;;;;6.25;2.63;;;;;;;;;;4758467;30;20044;-81
2024/02/01 07:10:05;;;;;;;9.23;2.17;;;;;;;;;;4757981;30;20104;-81
2024/02/01 07:12:42;;;;;;;3.83;2.33;;;;;;;;;;4743315;30;20891;-81
2024/02/01 07:20:50;;;;;;;5.20;1.42;;;;;;;;;;4763222;30;20146;-81
2024/02/01 07:25:48;;;;;;;8.00;2.10;;;;;;;;;;4761549;30;20036;-81
2024/02/01 07:58:29;;;;;;;4.47;3.00;;;;;;;;;;4764261;30;20066;-80
2024/02/01 08:00:57;;;;;;;15.35;2.17;;;;;;;;;;4752865;30;20113;-81
2024/02/01 08:08:38;;;;;;;9.48;3.70;;;;;;;;;;4738116;30;20048;-81
2024/02/01 08:11:05;;;;;;;4.85;2.67;;;;;;;;;;4768636;30;20039;-81
2024/02/01 08:13:31;;;;;;;10.52;2.33;;;;;;;;;;4763816;30;20040;-81
2024/02/01 08:15:58;;;;;;;5.40;2.30;;;;;;;;;;4760127;30;20040;-81
2024/02/01 08:18:34;;;;;;;8.48;2.97;;;;;;;;;;4735857;30;20498;-80
2024/02/01 08:21:00;;;;;;;10.07;3.53;;;;;;;;;;4750743;30;20032;-80
2024/02/01 08:23:26;;;;;;;6.40;2.60;;;;;;;;;;4750813;30;20383;-81
2024/02/01 08:25:52;;;;;;;5.50;1.88;;;;;;;;;;4768562;30;20042;-81
2024/02/01 08:28:20;;;;;;;5.10;1.23;;;;;;;;;;4758097;30;20047;-81
2024/02/01 08:30:47;;;;;;;4.82;1.23;;;;;;;;;;4763476;30;20877;-80
2024/02/01 08:33:18;;;;;;;1.67;1.33;;;;;;;;;;4762916;30;20067;-81
2024/02/01 08:35:46;;;;;;;8.82;1.95;;;;;;;;;;4755481;30;20032;-81
2024/02/01 08:38:12;;;;;;;5.07;2.33;;;;;;;;;;4746118;30;20139;-81
2024/02/01 08:40:41;;;;;;;6.05;2.50;;;;;;;;;;4768535;30;20031;-81
2024/02/01 08:43:07;;;;;;;2.25;0.98;;;;;;;;;;4764364;30;20039;-81
2024/02/01 08:45:37;;;;;;;1.88;1.27;;;;;;;;;;4735174;30;20036;-81
2024/02/01 08:48:04;;;;;;;12.60;3.17;;;;;;;;;;4760506;30;20036;-81
2024/02/01 08:50:35;;;;;;;21.15;2.53;;;;;;;;;;4754497;30;20081;-81
2024/02/01 08:53:01;;;;;;;2.90;1.83;;;;;;;;;;4741067;30;20039;-81
2024/02/01 08:55:27;;;;;;;6.32;2.35;;;;;;;;;;4755879;30;20032;-81
2024/02/01 08:57:54;;;;;;;6.03;2.55;;;;;;;;;;4761366;30;20411;-81
2024/02/01 09:00:29;;;;;;;5.30;3.25;;;;;;;;;;4766279;30;20039;-81
2024/02/01 09:03:17;;;;;;;2.47;1.23;;;;;;;;;;4738790;30;20040;-81
2024/02/01 09:05:45;;;;;;;4.13;2.30;;;;;;;;;;4755842;30;20104;-81
2024/02/01 09:08:14;;;;;;;5.38;2.55;;;;;;;;;;4754983;30;20043;-81
2024/02/01 09:11:00;;;;;;;13.20;3.03;;;;;;;;;;4757875;30;20560;-81
2024/02/01 09:13:28;;;;;;;3.05;2.05;;;;;;;;;;4766504;30;20398;-81
2024/02/01 09:15:54;;;;;;;2.60;1.52;;;;;;;;;;4756656;30;20078;-81
2024/02/01 09:18:20;;;;;;;7.68;1.92;;;;;;;;;;4738633;30;20047;-81
2024/02/01 09:20:47;;;;;;;4.43;2.92;;;;;;;;;;4761535;30;20111;-81
2024/02/01 09:23:13;;;;;;;11.63;2.10;;;;;;;;;;4761457;30;20035;-81
2024/02/01 09:25:40;;;;;;;4.07;1.88;;;;;;;;;;4763275;30;20076;-81
2024/02/01 09:28:12;;;;;;;4.18;2.03;;;;;;;;;;4756693;30;20870;-81
2024/02/01 09:30:45;;;;;;;3.83;2.33;;;;;;;;;;4763429;30;20059;-81
2024/02/01 09:33:12;;;;;;;4.45;1.40;;;;;;;;;;4768229;30;20036;-81
2024/02/01 09:35:38;;;;;;;3.60;2.42;;;;;;;;;;4753526;30;20044;-81
2024/02/01 09:38:04;;;;;;;4.97;2.70;;;;;;;;;;4763988;30;20040;-81
2024/02/01 09:40:30;;;;;;;5.75;2.97;;;;;;;;;;4748188;30;20033;-81
2024/02/01 09:42:56;;;;;;;8.03;4.00;;;;;;;;;;4755211;30;20567;-81
2024/02/01 09:45:28;;;;;;;11.93;2.95;;;;;;;;;;4764245;30;20039;-81
2024/02/01 09:47:55;;;;;;;6.95;1.98;;;;;;;;;;4758155;30;20040;-81
2024/02/01 09:50:21;;;;;;;6.03;3.22;;;;;;;;;;4769705;30;20700;-81
2024/02/01 09:52:48;;;;;;;7.78;3.30;;;;;;;;;;4765430;30;20036;-81
2024/02/01 09:55:18;;;;;;;4.85;2.72;;;;;;;;;;4758508;30;20040;-81
2024/02/01 09:57:52;;;;;;;7.60;2.17;;;;;;;;;;4761868;30;20046;-81
2024/02/01 10:00:19;;;;;;;6.05;2.25;;;;;;;;;;4749172;30;20051;-81
2024/02/01 10:02:46;;;;;;;19.15;2.58;;;;;;;;;;4753080;30;20093;-81
2024/02/01 10:05:13;;;;;;;6.28;3.35;;;;;;;;;;4765357;30;20055;-81
2024/02/01 10:07:39;;;;;;;4.00;2.50;;;;;;;;;;4767403;30;20054;-81
2024/02/01 10:10:05;;;;;;;8.27;3.33;;;;;;;;;;4754821;30;20121;-81
2024/02/01 10:12:35;;;;;;;5.07;2.78;;;;;;;;;;4761570;30;20125;-81
2024/02/01 10:15:08;;;;;;;5.22;2.85;;;;;;;;;;4770602;30;20035;-81
2024/02/01 10:17:45;;;;;;;7.15;2.65;;;;;;;;;;4767211;30;20521;-81
2024/02/01 10:20:33;;;;;;;4.43;2.58;;;;;;;;;;4763774;30;20112;-81
2024/02/01 10:22:59;;;;;;;4.97;3.22;;;;;;;;;;4746619;30;20051;-81
2024/02/01 10:25:33;;;;;;;4.63;2.65;;;;;;;;;;4765661;30;20839;-80
2024/02/01 10:28:00;;;;;;;5.22;3.67;;;;;;;;;;4763895;30;20049;-81
2024/02/01 10:30:26;;;;;;;10.25;4.57;;;;;;;;;;4744821;30;20097;-81
2024/02/01 10:32:54;;;;;;;16.77;6.97;;;;;;;;;;4769177;30;20052;-81
2024/02/01 10:35:21;;;;;;;14.13;6.78;;;;;;;;;;4760707;30;20406;-81
2024/02/01 10:37:48;;;;;;;33.15;7.25;;;;;;;;;;4755926;30;20036;-81
2024/02/01 10:40:16;;;;;;;7.07;3.97;;;;;;;;;;4762939;30;20047;-81
2024/02/01 10:42:45;;;;;;;9.57;3.70;;;;;;;;;;4767687;30;20036;-81
2024/02/01 10:45:12;;;;;;;11.90;2.65;;;;;;;;;;4764548;30;20044;-81
2024/02/01 10:47:42;;;;;;;2.63;1.70;;;;;;;;;;4745191;30;20044;-81
2024/02/01 10:50:08;;;;;;;3.63;1.52;;;;;;;;;;4752973;30;20633;-81
2024/02/01 10:52:35;;;;;;;4.15;1.55;;;;;;;;;;4760589;30;20077;-81
2024/02/01 10:55:09;;;;;;;4.78;1.92;;;;;;;;;;4760634;30;20577;-81
2024/02/01 10:57:36;;;;;;;3.13;1.38;;;;;;;;;;4767866;30;20024;-81
2024/02/01 11:00:02;;;;;;;1.13;0.70;;;;;;;;;;4739425;30;20045;-81
2024/02/01 11:02:29;;;;;;;3.75;1.90;;;;;;;;;;4757747;30;20028;-81
2024/02/01 11:04:55;;;;;;;1.67;1.02;;;;;;;;;;4770865;30;20134;-81
2024/02/01 11:07:24;;;;;;;4.50;1.58;;;;;;;;;;4768332;30;20113;-81
2024/02/01 11:09:52;;;;;;;6.05;2.15;;;;;;;;;;4760373;30;20139;-81
2024/02/01 11:12:25;;;;;;;4.43;1.73;;;;;;;;;;4757060;30;20039;-81
2024/02/01 11:14:51;;;;;;;6.85;2.25;;;;;;;;;;4767158;30;20109;-81
2024/02/01 11:17:17;;;;;;;;;;;;;;;;;;4747579;30;20040;-81
2024/02/01 11:19:45;;;;;;;;;;;;;;;;;;4746556;30;19950;-81
2024/02/01 11:22:11;;;;;;;;;;;;;;;;;;4764819;30;20288;-81
2024/02/01 11:24:37;;;;;;;;;;;;;;;;;;4756942;30;20019;-82
2024/02/01 11:27:13;;;;;;;8.05;3.30;;;;;;;;;;4767925;30;19917;-81
2024/02/01 11:29:41;;;;;;;5.93;1.85;;;;;;;;;;4756651;30;20040;-81
2024/02/01 11:32:07;;;;;;;7.28;2.80;;;;;;;;;;4768613;30;20785;-81
2024/02/01 11:34:35;;;;;;;1.92;0.93;;;;;;;;;;4760927;30;20135;-81
2024/02/01 11:37:01;;;;;;;4.00;1.30;;;;;;;;;;4753716;30;20040;-81
2024/02/01 11:39:27;;;;;;;1.27;0.88;;;;;;;;;;4742462;30;20054;-81
2024/02/01 11:41:54;;;;;;;1.50;0.93;;;;;;;;;;4765200;30;20041;-82
2024/02/01 11:44:20;;;;;;;;;;;;;;;;;;4756233;30;20128;-82
2024/02/01 11:46:47;;;;;;;10.45;2.83;;;;;;;;;;4767304;30;20369;-82
2024/02/01 11:49:17;;;;;;;5.43;2.53;;;;;;;;;;4753932;30;20040;-82
2024/02/01 11:52:13;;;;;;;7.80;3.08;;;;;;;;;;4753398;30;20040;-82
2024/02/01 11:54:38;;;;;;;;;;;;;;;;;;4767912;30;20053;-81
2024/02/01 11:57:11;;;;;;;24.98;2.13;;;;;;;;;;4769177;30;20368;-82
2024/02/01 11:59:37;;;;;;;9.00;2.40;;;;;;;;;;4765589;30;20115;-81
2024/02/01 12:02:04;;;;;;;3.35;2.05;;;;;;;;;;4765147;30;20510;-82
2024/02/01 12:04:30;;;;;;;2.65;1.35;;;;;;;;;;4758819;30;20128;-82
2024/02/01 12:06:57;;;;;;;3.00;2.30;;;;;;;;;;4751778;30;20491;-82
2024/02/01 12:09:23;;;;;;;3.97;2.83;;;;;;;;;;4745462;30;20047;-82
2024/02/01 12:11:54;;;;;;;3.90;1.88;;;;;;;;;;4759309;30;20113;-82
2024/02/01 12:14:21;;;;;;;5.35;3.33;;;;;;;;;;4761026;30;20067;-82
2024/02/01 12:16:53;;;;;;;5.15;2.10;;;;;;;;;;4761531;30;20028;-82
2024/02/01 12:19:22;;;;;;;;;;;;;;;;;;4759613;30;20039;-82
2024/02/01 12:21:53;;;;;;;6.75;3.38;;;;;;;;;;4767369;30;19918;-82
2024/02/01 12:24:23;;;;;;;5.07;2.42;;;;;;;;;;4766062;30;20032;-81
2024/02/01 12:26:50;;;;;;;36.95;2.63;;;;;;;;;;4755011;30;20051;-82
2024/02/01 12:29:16;;;;;;;5.45;3.10;;;;;;;;;;4762695;30;20039;-82
2024/02/01 12:31:42;;;;;;;3.80;2.35;;;;;;;;;;4737320;30;20043;-82
2024/02/01 12:34:13;;;;;;;3.70;2.35;;;;;;;;;;4747068;30;20055;-81
2024/02/01 12:36:39;;;;;;;;;;;;;;;;;;4767225;30;20042;-82
2024/02/01 12:39:05;;;;;;;5.80;2.97;;;;;;;;;;4767313;30;19918;-81
2024/02/01 12:41:34;;;;;;;5.30;2.40;;;;;;;;;;4765477;30;20498;-82
2024/02/01 12:44:03;;;;;;;5.55;2.85;;;;;;;;;;4761426;30;20036;-82
2024/02/01 12:46:29;;;;;;;8.10;2.38;;;;;;;;;;4766971;30;20032;-81
2024/02/01 12:48:56;;;;;;;4.60;2.20;;;;;;;;;;4766417;30;20046;-82
2024/02/01 12:51:28;;;;;;;9.82;3.33;;;;;;;;;;4762459;30;20040;-81
2024/02/01 12:53:57;;;;;;;5.00;2.17;;;;;;;;;;4742506;30;20387;-82
2024/02/01 12:56:24;;;;;;;;;;;;;;;;;;4755305;30;20056;-82
2024/02/01 12:58:51;;;;;;;2.50;1.90;;;;;;;;;;4751873;30;19914;-81
2024/02/01 13:01:17;;;;;;;7.70;3.35;;;;;;;;;;4761414;30;20044;-81
2024/02/01 13:03:45;;;;;;;5.60;2.47;;;;;;;;;;4735357;30;20086;-81
2024/02/01 13:06:11;;;;;;;7.90;4.30;;;;;;;;;;4759102;30;20438;-81
2024/02/01 13:08:40;;;;;;;15.35;6.50;;;;;;;;;;4758469;30;20422;-81
2024/02/01 13:11:07;;;;;;;14.88;4.55;;;;;;;;;;4755410;30;20581;-81
2024/02/01 13:13:33;;;;;;;14.18;4.47;;;;;;;;;;4733273;30;20408;-81
2024/02/01 13:15:59;;;;;;;9.90;4.57;;;;;;;;;;4757826;30;20424;-81
2024/02/01 13:18:26;;;;;;;;;;;;;;;;;;4766778;30;20032;-81
2024/02/01 13:20:52;;;;;;;3.58;2.38;;;;;;;;;;4759108;30;20657;-81
2024/02/01 13:23:18;;;;;;;4.25;2.80;;;;;;;;;;4768182;30;20043;-81
2024/02/01 13:25:44;;;;;;;5.13;2.30;;;;;;;;;;4761703;30;20031;-81
2024/02/01 13:28:11;;;;;;;3.33;2.40;;;;;;;;;;4755936;30;20036;-81
2024/02/01 13:30:43;;;;;;;6.20;2.60;;;;;;;;;;4754719;30;20115;-81
2024/02/01 13:33:09;;;;;;;6.65;2.47;;;;;;;;;;4749887;30;20143;-82
2024/02/01 13:35:36;;;;;;;9.93;1.98;;;;;;;;;;4761355;30;20036;-81
2024/02/01 13:38:08;;;;;;;3.17;1.70;;;;;;;;;;4762697;30;20036;-81
2024/02/01 13:40:34;;;;;;;3.78;1.70;;;;;;;;;;4763610;30;20805;-82
2024/02/01 13:43:00;;;;;;;4.25;1.77;;;;;;;;;;4745059;30;20047;-82
2024/02/01 13:45:27;;;;;;;9.18;2.25;;;;;;;;;;4759522;30;20071;-81
2024/02/01 13:47:56;;;;;;;4.15;2.40;;;;;;;;;;4746361;30;20048;-81
2024/02/01 13:50:22;;;;;;;7.55;2.95;;;;;;;;;;4758854;30;20047;-82
2024/02/01 13:52:48;;;;;;;6.30;3.33;;;;;;;;;;4756394;30;20040;-82
2024/02/01 13:55:14;;;;;;;8.32;4.25;;;;;;;;;;4744628;30;20047;-81
2024/02/01 13:57:40;;;;;;;7.25;3.45;;;;;;;;;;4764980;30;20047;-81
2024/02/01 14:00:14;;;;;;;6.22;3.55;;;;;;;;;;4765475;30;20064;-81
2024/02/01 14:02:41;;;;;;;5.47;3.47;;;;;;;;;;4757521;30;20470;-81
2024/02/01 14:05:07;;;;;;;11.60;3.25;;;;;;;;;;4751189;30;20075;-81
2024/02/01 14:07:33;;;;;;;9.68;3.53;;;;;;;;;;4760798;30;20044;-81
2024/02/01 14:09:59;;;;;;;14.02;3.53;;;;;;;;;;4761544;30;20044;-81
2024/02/01 14:12:25;;;;;;;5.35;2.35;;;;;;;;;;4758339;30;20505;-81
2024/02/01 14:14:51;;;;;;;18.83;3.38;;;;;;;;;;4756150;30;20040;-81
2024/02/01 14:17:17;;;;;;;3.50;2.05;;;;;;;;;;4751273;30;20058;-82
2024/02/01 14:19:43;;;;;;;2.78;1.52;;;;;;;;;;4741073;30;20048;-81
2024/02/01 14:22:09;;;;;;;5.05;2.42;;;;;;;;;;4748941;30;20047;-81
2024/02/01 14:24:35;;;;;;;2.72;1.48;;;;;;;;;;4749092;30;20036;-82
2024/02/01 14:27:01;;;;;;;5.03;2.13;;;;;;;;;;4755877;30;20047;-82
2024/02/01 14:29:27;;;;;;;2.35;1.15;;;;;;;;;;4763906;30;20081;-81
2024/02/01 14:31:54;;;;;;;2.72;1.23;;;;;;;;;;4761820;30;20040;-81
2024/02/01 14:34:20;;;;;;;10.90;4.03;;;;;;;;;;4747922;30;20151;-82
2024/02/01 14:36:47;;;;;;;9.05;3.50;;;;;;;;;;4751210;30;20044;-82
2024/02/01 14:39:23;;;;;;;3.22;2.10;;;;;;;;;;4769708;30;20040;-82
2024/02/01 14:41:52;;;;;;;3.05;1.85;;;;;;;;;;4769501;30;20115;-81
2024/02/01 14:44:18;;;;;;;3.22;2.20;;;;;;;;;;4751257;30;20065;-82
2024/02/01 14:46:45;;;;;;;7.38;2.65;;;;;;;;;;4752963;30;20040;-82
2024/02/01 14:49:11;;;;;;;3.88;1.75;;;;;;;;;;4754844;30;20063;-82
2024/02/01 14:51:38;;;;;;;3.50;1.83;;;;;;;;;;4762620;30;20063;-82
2024/02/01 14:54:05;;;;;;;7.63;2.72;;;;;;;;;;4743436;30;20040;-82
2024/02/01 14:56:34;;;;;;;4.38;2.08;;;;;;;;;;4763788;30;20116;-82
2024/02/01 14:59:03;;;;;;;6.75;3.80;;;;;;;;;;4758721;30;20040;-82
2024/02/01 15:01:30;;;;;;;14.68;7.05;;;;;;;;;;4766449;30;20034;-82
2024/02/01 15:03:56;;;;;;;15.13;5.63;;;;;;;;;;4750806;30;20131;-81
2024/02/01 15:06:23;;;;;;;12.75;6.53;;;;;;;;;;4769275;30;20035;-81
2024/02/01 15:08:50;;;;;;;11.07;6.88;;;;;;;;;;4767058;30;20119;-81
2024/02/01 15:11:17;;;;;;;33.83;6.38;;;;;;;;;;4769006;30;20111;-81
2024/02/01 15:13:45;;;;;;;11.18;5.15;;;;;;;;;;4762294;30;20039;-81
2024/02/01 15:16:11;;;;;;;9.65;3.10;;;;;;;;;;4760380;30;20035;-81
2024/02/01 15:18:38;;;;;;;11.80;3.33;;;;;;;;;;4764665;30;20070;-81
2024/02/01 15:21:11;;;;;;;7.10;3.72;;;;;;;;;;4764719;30;20036;-81
2024/02/01 15:23:38;;;;;;;28.73;3.85;;;;;;;;;;4762191;30;20538;-81
2024/02/01 15:26:04;;;;;;;5.13;2.10;;;;;;;;;;4760497;30;20144;-81
2024/02/01 15:28:30;;;;;;;3.65;1.90;;;;;;;;;;4738313;30;20055;-81
2024/02/01 15:30:56;;;;;;;6.28;2.53;;;;;;;;;;4762004;30;20383;-80
2024/02/01 15:33:23;;;;;;;5.50;3.17;;;;;;;;;;4758248;30;20052;-81
2024/02/01 15:35:50;;;;;;;6.15;2.08;;;;;;;;;;4745495;30;20551;-81
2024/02/01 15:38:18;;;;;;;6.25;2.25;;;;;;;;;;4761503;30;20055;-81